Time;durP1;ratioP1;P1;durP2;ratioP2;P2;SDS_P1;SDS_P2;PMS_P1;PMS_P2;Temp;Humidity;BMP_temperature;BMP_pressure;BME280_temperature;BME280_humidity;BME280_pressure;Samples;Min_cycle;Max_cycle;Signal;HPM_P1;HPM_P2
2021/06/29 00:02:07;;;;;;;47.17;26.52;;;19.90;99.90;;;20.22;87.38;101261.00;5116815;28;20043;-72
2021/06/29 00:04:36;;;;;;;50.67;26.80;;;19.90;99.90;;;20.19;87.95;101261.09;5116828;28;20079;-72
2021/06/29 00:07:05;;;;;;;44.60;26.63;;;19.90;99.90;;;20.05;88.69;101255.38;5117271;28;20089;-72
2021/06/29 00:09:35;;;;;;;48.13;28.05;;;19.70;99.90;;;20.07;88.96;101242.75;5116978;28;20072;-72
2021/06/29 00:12:04;;;;;;;53.53;27.00;;;19.70;99.90;;;20.13;89.18;101250.56;5117280;28;20044;-72
2021/06/29 00:14:33;;;;;;;55.55;28.17;;;19.70;99.90;;;19.82;90.37;101244.59;5116617;28;20054;-72
2021/06/29 00:17:01;;;;;;;60.05;28.80;;;19.60;99.90;;;19.98;90.79;101235.03;5116806;28;20075;-72
2021/06/29 00:19:29;;;;;;;64.55;29.25;;;19.60;99.90;;;20.14;90.17;101236.22;5116441;28;20043;-71
2021/06/29 00:21:58;;;;;;;56.00;27.85;;;19.70;99.90;;;20.15;90.27;101235.25;5116768;28;20071;-72
2021/06/29 00:24:26;;;;;;;53.17;26.30;;;19.70;99.90;;;20.22;89.96;101228.78;5116657;28;20545;-72
2021/06/29 00:26:56;;;;;;;60.50;28.30;;;19.80;99.90;;;20.30;89.55;101226.66;5116346;28;20040;-72
2021/06/29 00:29:25;;;;;;;59.50;27.15;;;20.00;99.90;;;20.09;90.00;101223.88;5116776;28;20066;-71
2021/06/29 00:31:53;;;;;;;61.05;28.08;;;19.80;99.90;;;19.99;90.96;101223.34;5116341;28;20047;-72
2021/06/29 00:34:22;;;;;;;51.42;26.73;;;19.70;99.90;;;20.18;90.89;101220.84;5116475;28;20459;-72
2021/06/29 00:36:50;;;;;;;63.47;28.02;;;19.90;99.90;;;20.23;90.57;101222.44;5116481;28;20031;-72
2021/06/29 00:39:18;;;;;;;51.60;26.48;;;19.90;99.90;;;20.26;90.87;101227.72;5097995;28;21933;-72
2021/06/29 00:41:47;;;;;;;57.30;26.60;;;19.90;99.90;;;20.33;90.43;101237.28;5116313;28;20047;-71
2021/06/29 00:44:22;;;;;;;58.28;27.77;;;20.00;99.90;;;19.67;90.71;101151.16;5116277;28;20401;-72
2021/06/29 00:46:51;;;;;;;59.70;27.20;;;19.90;99.90;;;20.40;90.45;101249.53;5116236;28;20048;-72
2021/06/29 00:49:20;;;;;;;59.20;28.67;;;20.00;99.90;;;20.59;89.73;101234.47;5116292;28;20039;-72
2021/06/29 00:51:48;;;;;;;51.40;27.77;;;20.20;99.90;;;20.59;89.25;101234.47;5098040;28;20082;-72
2021/06/29 00:54:17;;;;;;;59.53;27.38;;;20.30;99.90;;;20.66;89.09;101225.22;5116175;28;20051;-72
2021/06/29 00:56:46;;;;;;;50.15;24.02;;;20.30;99.90;;;20.75;88.68;101225.78;5096716;28;20039;-72
2021/06/29 00:59:14;;;;;;;41.33;22.80;;;20.40;99.90;;;20.70;88.33;101201.75;5115305;28;20048;-72
2021/06/29 01:01:44;;;;;;;49.55;24.75;;;20.40;99.90;;;20.87;87.96;101217.19;5116086;28;20395;-72
2021/06/29 01:04:12;;;;;;;52.15;24.08;;;20.60;99.90;;;20.81;87.58;101209.41;5097632;28;20043;-72
2021/06/29 01:06:41;;;;;;;55.40;24.92;;;20.50;99.90;;;20.77;87.96;101213.16;5115618;28;20089;-72
2021/06/29 01:09:10;;;;;;;57.70;26.13;;;20.40;99.90;;;20.79;87.59;101192.47;5097515;28;20047;-72
2021/06/29 01:11:38;;;;;;;58.90;26.50;;;20.40;99.90;;;20.75;87.55;101191.69;5116054;28;20427;-72
2021/06/29 01:14:12;;;;;;;64.90;27.45;;;20.40;99.90;;;20.68;87.40;101172.25;5116016;28;20047;-72
2021/06/29 01:16:42;;;;;;;67.72;27.90;;;20.40;99.90;;;20.90;86.72;101190.19;5115998;28;20039;-72
2021/06/29 01:19:13;;;;;;;63.30;27.05;;;20.50;99.90;;;20.90;86.60;101184.81;5097645;28;20050;-72
2021/06/29 01:21:44;;;;;;;62.13;26.35;;;20.50;99.90;;;20.90;86.88;101176.75;5115601;28;20039;-72
2021/06/29 01:24:19;;;;;;;62.60;26.67;;;20.60;99.90;;;20.84;86.88;101185.94;5115560;28;20374;-71
2021/06/29 01:26:54;;;;;;;59.17;26.55;;;20.50;99.90;;;20.64;87.55;101181.38;5115590;28;20390;-72
2021/06/29 01:29:30;;;;;;;54.55;25.83;;;20.40;99.90;;;20.81;87.38;101180.69;5115563;28;20039;-71
2021/06/29 01:31:58;;;;;;;55.10;27.58;;;20.50;99.90;;;20.81;87.54;101185.19;5115124;28;20043;-71
2021/06/29 01:34:26;;;;;;;48.30;25.20;;;20.40;99.90;;;20.82;87.31;101184.25;5115364;28;20079;-72
2021/06/29 01:36:56;;;;;;;56.95;27.77;;;20.40;99.90;;;20.82;87.49;101182.44;5115059;28;20075;-72
2021/06/29 01:39:25;;;;;;;49.70;26.90;;;20.50;99.90;;;20.78;87.21;101188.00;5096998;28;20040;-72
2021/06/29 01:41:53;;;;;;;57.53;28.45;;;20.40;99.90;;;20.58;87.96;101170.88;5115071;28;20074;-72
2021/06/29 01:44:24;;;;;;;59.22;29.02;;;20.30;99.90;;;20.72;88.24;101175.69;5096516;28;20059;-72
2021/06/29 01:46:54;;;;;;;59.40;29.38;;;20.30;99.90;;;20.92;87.74;101178.44;5115155;28;20055;-71
2021/06/29 01:49:26;;;;;;;64.05;30.77;;;20.50;99.90;;;20.93;87.34;101181.97;5115071;28;20043;-72
2021/06/29 01:51:55;;;;;;;59.03;29.30;;;20.60;99.90;;;20.98;87.15;101171.91;5096482;28;20059;-72
2021/06/29 01:54:24;;;;;;;53.30;27.88;;;20.60;99.90;;;20.94;86.92;101175.69;5114673;28;20497;-72
2021/06/29 01:56:53;;;;;;;50.35;26.02;;;20.60;99.90;;;20.81;87.24;101147.56;5096432;28;20075;-72
2021/06/29 01:59:22;;;;;;;54.47;27.27;;;20.60;99.90;;;20.82;87.60;101165.41;5114861;28;20069;-72
2021/06/29 02:01:51;;;;;;;52.42;27.67;;;20.50;99.90;;;20.87;87.13;101163.41;5114740;28;20088;-72
2021/06/29 02:04:23;;;;;;;55.90;27.55;;;20.50;99.90;;;21.02;86.91;101170.88;5096447;28;20048;-72
2021/06/29 02:06:52;;;;;;;59.95;28.73;;;20.60;99.90;;;20.77;87.22;101159.38;5096453;28;20097;-72
2021/06/29 02:09:22;;;;;;;54.70;28.20;;;20.60;99.90;;;20.92;87.54;101150.66;5114189;28;20070;-72
2021/06/29 02:11:50;;;;;;;55.13;28.27;;;20.60;99.90;;;20.70;87.85;101134.53;5096327;28;20076;-72
2021/06/29 02:14:19;;;;;;;58.95;28.13;;;20.50;99.90;;;20.68;88.75;101150.75;5114791;28;20695;-72
2021/06/29 02:16:47;;;;;;;63.15;28.20;;;20.40;99.90;;;20.59;89.55;101153.81;5114550;28;20048;-72
2021/06/29 02:19:16;;;;;;;68.22;29.00;;;20.20;99.90;;;20.57;89.22;101154.81;5114460;28;20089;-72
2021/06/29 02:21:44;;;;;;;55.97;26.45;;;20.20;99.90;;;20.66;89.09;101151.75;5114133;28;20042;-72
2021/06/29 02:24:13;;;;;;;59.08;28.52;;;20.20;99.90;;;20.57;89.32;101141.38;5114308;28;20038;-72
2021/06/29 02:26:42;;;;;;;55.25;28.92;;;20.20;99.90;;;20.75;88.66;101137.91;5114715;28;20081;-72
2021/06/29 02:29:11;;;;;;;68.15;31.67;;;20.30;99.90;;;20.34;87.60;101025.88;5114408;28;20052;-72
2021/06/29 02:31:39;;;;;;;62.22;30.00;;;20.50;99.90;;;20.94;87.64;101132.63;5114225;28;20043;-72
2021/06/29 02:34:08;;;;;;;60.72;29.83;;;20.60;99.90;;;20.78;87.60;101083.13;5113972;28;20403;-72
2021/06/29 02:36:36;;;;;;;65.47;31.67;;;20.60;99.90;;;20.98;87.18;101107.38;5114684;28;20474;-72
2021/06/29 02:39:06;;;;;;;61.08;32.22;;;20.70;99.90;;;20.97;86.72;101110.97;5095779;28;20048;-72
2021/06/29 02:41:38;;;;;;;66.82;32.55;;;20.60;99.90;;;20.98;86.47;101112.75;5113838;28;20039;-72
2021/06/29 02:44:09;;;;;;;67.00;31.75;;;20.60;99.90;;;21.00;86.57;101102.78;5113934;28;20036;-72
2021/06/29 02:46:37;;;;;;;65.05;30.58;;;20.70;99.90;;;21.09;85.95;101115.88;5113957;28;20561;-72
2021/06/29 02:49:06;;;;;;;55.17;29.55;;;20.70;99.90;;;21.11;85.65;101109.47;5095863;28;20130;-72
2021/06/29 02:51:35;;;;;;;62.83;30.88;;;20.70;99.90;;;21.21;85.29;101108.16;5113867;28;20087;-72
2021/06/29 02:54:04;;;;;;;61.85;31.23;;;20.80;99.90;;;21.21;84.97;101110.84;5095579;28;20060;-72
2021/06/29 02:56:39;;;;;;;57.50;30.95;;;20.90;99.90;;;21.21;84.68;101104.56;5095380;28;20035;-72
2021/06/29 02:59:12;;;;;;;52.90;30.38;;;20.90;99.90;;;21.25;84.69;101100.81;5095504;28;20052;-72
2021/06/29 03:01:40;;;;;;;55.00;30.55;;;20.90;99.90;;;21.23;84.67;101108.06;5113848;28;20039;-72
2021/06/29 03:04:10;;;;;;;60.20;30.65;;;20.90;99.90;;;21.19;84.44;101095.69;5113967;28;20067;-72
2021/06/29 03:06:39;;;;;;;57.90;29.83;;;20.80;99.90;;;21.27;84.31;101102.47;5095282;28;20049;-72
2021/06/29 03:09:09;;;;;;;48.53;29.63;;;20.90;99.90;;;21.20;84.04;101090.22;5113355;28;20043;-72
2021/06/29 03:11:38;;;;;;;49.47;28.92;;;20.90;99.90;;;21.28;83.87;101097.97;5113607;28;20062;-72
2021/06/29 03:14:08;;;;;;;47.80;27.88;;;20.90;99.90;;;21.38;83.75;101107.38;5113312;28;20108;-72
2021/06/29 03:16:37;;;;;;;51.88;27.55;;;21.00;99.90;;;21.49;83.10;101108.63;5113800;28;20052;-72
2021/06/29 03:19:05;;;;;;;46.58;27.88;;;21.10;99.90;;;21.50;82.76;101113.06;5113767;28;20143;-72
2021/06/29 03:21:34;;;;;;;42.22;25.63;;;21.20;99.90;;;21.54;82.58;101111.97;5112422;28;20378;-72
2021/06/29 03:24:02;;;;;;;36.95;22.95;;;21.20;99.90;;;21.50;82.14;101112.22;5113183;28;20039;-72
2021/06/29 03:26:31;;;;;;;37.65;21.85;;;21.20;99.90;;;21.41;82.18;101097.34;5113595;28;20066;-72
2021/06/29 03:28:59;;;;;;;34.83;21.85;;;21.10;99.90;;;21.42;81.99;101091.03;5113052;28;20101;-72
2021/06/29 03:31:29;;;;;;;29.85;20.50;;;21.10;99.90;;;21.40;82.46;101092.91;5113632;28;20044;-72
2021/06/29 03:33:57;;;;;;;32.58;20.63;;;21.00;99.90;;;21.43;82.33;101094.56;5113367;28;20039;-72
2021/06/29 03:36:26;;;;;;;31.92;20.35;;;21.00;99.90;;;21.35;82.26;101096.75;5113055;28;20484;-72
2021/06/29 03:38:54;;;;;;;28.30;19.90;;;21.00;99.90;;;21.35;82.17;101099.47;5095027;28;20055;-72
2021/06/29 03:41:23;;;;;;;28.33;18.77;;;20.90;99.90;;;21.35;82.34;101094.06;5113136;28;20048;-72
2021/06/29 03:43:52;;;;;;;33.80;20.08;;;20.90;99.90;;;21.36;82.32;101099.38;5095253;28;20056;-72
2021/06/29 03:46:20;;;;;;;29.58;19.33;;;21.00;99.90;;;20.86;82.05;101011.06;5113227;28;20481;-72
2021/06/29 03:48:51;;;;;;;33.67;19.80;;;21.00;99.90;;;21.28;81.54;101112.31;5113107;28;20051;-72
2021/06/29 03:51:19;;;;;;;36.80;20.20;;;21.00;99.90;;;20.91;83.65;101111.22;5112980;28;20096;-73
2021/06/29 03:53:47;;;;;;;27.65;19.00;;;20.60;99.90;;;20.89;84.17;101121.19;5113208;28;20043;-72
2021/06/29 03:56:28;;;;;;;33.28;19.83;;;20.50;99.90;;;21.04;83.84;101118.75;5094476;28;20047;-72
2021/06/29 03:58:59;;;;;;;31.25;20.33;;;20.60;99.90;;;21.14;83.12;101132.66;5112980;28;20568;-72
2021/06/29 04:01:29;;;;;;;29.20;19.65;;;20.70;99.90;;;21.04;83.18;101126.81;5094801;28;20039;-72
2021/06/29 04:04:00;;;;;;;30.60;21.35;;;20.60;99.90;;;20.92;83.16;101113.88;5113172;28;20101;-72
2021/06/29 04:06:34;;;;;;;32.88;21.23;;;20.60;99.90;;;20.89;83.48;101116.69;5113226;28;20079;-72
2021/06/29 04:09:04;;;;;;;33.80;23.23;;;20.60;99.90;;;20.92;83.76;101119.25;5113028;28;20048;-72
2021/06/29 04:11:33;;;;;;;33.60;21.65;;;20.60;99.90;;;20.37;83.97;101021.25;5113148;28;20100;-72
2021/06/29 04:14:02;;;;;;;32.08;21.98;;;20.60;99.90;;;20.90;83.86;101115.75;5113011;28;20048;-72
2021/06/29 04:16:30;;;;;;;39.28;24.30;;;20.60;99.90;;;20.98;84.02;101121.66;5112661;28;20081;-72
2021/06/29 04:19:00;;;;;;;38.85;24.50;;;20.60;99.90;;;20.97;83.90;101109.16;5112917;28;20075;-72
2021/06/29 04:21:29;;;;;;;42.25;25.33;;;20.60;99.90;;;21.04;83.59;101116.06;5113128;28;20047;-72
2021/06/29 04:24:04;;;;;;;43.20;26.20;;;20.70;99.90;;;21.09;83.45;101127.50;5112905;28;20043;-72
2021/06/29 04:26:33;;;;;;;44.85;25.60;;;20.70;99.90;;;21.13;83.48;101123.75;5112553;28;20442;-72
2021/06/29 04:29:02;;;;;;;40.85;25.52;;;20.70;99.90;;;21.15;83.34;101129.06;5112525;28;20283;-72
2021/06/29 04:31:31;;;;;;;43.38;26.20;;;20.70;99.90;;;20.93;83.14;101095.91;5113177;28;20047;-72
2021/06/29 04:34:02;;;;;;;42.50;26.83;;;20.80;99.90;;;21.18;83.13;101131.59;5116574;28;20051;-72
2021/06/29 04:36:30;;;;;;;47.55;28.42;;;20.80;99.90;;;21.20;82.78;101132.41;5116275;28;20040;-71
2021/06/29 04:38:59;;;;;;;47.35;27.95;;;20.80;99.90;;;21.20;82.71;101130.59;5116253;28;20546;-72
2021/06/29 04:41:27;;;;;;;43.53;27.42;;;20.80;99.90;;;21.21;82.68;101123.41;5116055;28;20039;-72
2021/06/29 04:43:56;;;;;;;45.05;27.98;;;20.80;99.90;;;21.19;82.73;101127.97;5116343;28;20050;-72
2021/06/29 04:46:24;;;;;;;43.25;28.17;;;20.80;99.90;;;21.19;82.65;101128.88;5116236;28;20044;-72
2021/06/29 04:48:52;;;;;;;45.85;28.25;;;20.80;99.90;;;21.21;82.57;101132.38;5116541;28;20055;-72
2021/06/29 04:51:22;;;;;;;48.20;27.52;;;20.80;99.90;;;21.17;82.48;101128.06;5116199;28;20093;-72
2021/06/29 04:53:51;;;;;;;42.17;27.85;;;20.80;99.90;;;21.23;82.45;101127.78;5097924;28;20160;-72
2021/06/29 04:56:20;;;;;;;41.45;26.50;;;20.80;99.90;;;21.25;82.42;101130.41;5097719;28;20071;-72
2021/06/29 04:58:52;;;;;;;39.83;26.85;;;20.80;99.90;;;21.25;82.38;101141.16;5116349;28;20439;-72
2021/06/29 05:01:21;;;;;;;41.13;27.30;;;20.80;99.90;;;21.25;82.50;101139.31;5116123;28;20044;-72
2021/06/29 05:03:51;;;;;;;38.13;26.38;;;20.90;99.90;;;21.29;82.36;101137.41;5097683;28;20459;-72
2021/06/29 05:06:19;;;;;;;38.47;27.67;;;20.90;99.90;;;21.31;82.17;101132.81;5115633;28;20063;-72
2021/06/29 05:08:50;;;;;;;41.45;26.83;;;20.90;99.90;;;21.33;82.10;101141.72;5115834;28;20113;-72
2021/06/29 05:11:18;;;;;;;37.67;26.48;;;21.00;99.90;;;21.37;82.09;101141.47;5097591;28;20043;-72
2021/06/29 05:13:47;;;;;;;36.63;25.52;;;21.00;99.90;;;21.34;82.45;101133.56;5115708;28;20066;-72
2021/06/29 05:16:15;;;;;;;40.45;25.92;;;21.00;99.90;;;21.29;82.98;101134.72;5115728;28;20097;-72
2021/06/29 05:18:44;;;;;;;37.88;26.10;;;20.90;99.90;;;21.23;83.45;101140.34;5115722;28;20047;-72
2021/06/29 05:21:12;;;;;;;32.03;24.48;;;20.80;99.90;;;21.20;83.64;101129.72;5115877;28;20048;-72
2021/06/29 05:23:41;;;;;;;34.05;24.38;;;20.80;99.90;;;21.19;83.94;101138.75;5097222;28;20047;-72
2021/06/29 05:26:11;;;;;;;36.25;25.25;;;20.80;99.90;;;21.22;83.68;101133.22;5115519;28;20070;-72
2021/06/29 05:28:39;;;;;;;37.55;25.27;;;20.80;99.90;;;21.27;83.97;101144.66;5097104;28;20184;-72
2021/06/29 05:31:08;;;;;;;32.83;24.63;;;20.80;99.90;;;21.22;83.64;101127.84;5115189;28;20043;-72
2021/06/29 05:33:39;;;;;;;34.65;23.20;;;20.90;99.90;;;21.30;83.52;101150.78;5097071;28;20051;-72
2021/06/29 05:36:08;;;;;;;32.85;23.98;;;20.90;99.90;;;21.35;83.41;101148.75;5115383;28;20076;-72
2021/06/29 05:38:36;;;;;;;31.27;23.98;;;20.90;99.90;;;21.40;83.21;101159.31;5115304;28;20043;-72
2021/06/29 05:41:05;;;;;;;34.00;23.27;;;21.00;99.90;;;21.41;82.94;101156.56;5096885;28;20043;-72
2021/06/29 05:43:35;;;;;;;31.17;23.77;;;21.00;99.90;;;21.40;82.84;101156.63;5114149;28;20554;-72
2021/06/29 05:46:04;;;;;;;32.83;22.93;;;21.10;99.90;;;21.40;82.69;101156.63;5115233;28;20097;-72
2021/06/29 05:48:33;;;;;;;31.13;22.90;;;21.00;99.90;;;21.35;83.11;101162.22;5096631;28;20788;-73
2021/06/29 05:51:03;;;;;;;33.92;23.52;;;21.00;99.90;;;21.32;83.54;101158.78;5096757;28;20459;-72
2021/06/29 05:53:32;;;;;;;28.58;22.27;;;20.90;99.90;;;21.33;83.60;101157.84;5114821;28;20050;-72
2021/06/29 05:56:01;;;;;;;27.02;22.08;;;20.90;99.90;;;21.23;83.87;101141.25;5096332;28;20045;-73
2021/06/29 05:58:31;;;;;;;25.30;20.98;;;20.90;99.90;;;21.26;83.97;101151.84;5114543;28;20040;-72
2021/06/29 06:01:00;;;;;;;27.60;21.27;;;20.80;99.90;;;21.28;83.85;101146.41;5096252;28;20143;-72
2021/06/29 06:03:29;;;;;;;28.20;20.80;;;20.90;99.90;;;21.35;83.71;101158.66;5114681;28;20047;-72
2021/06/29 06:05:58;;;;;;;28.98;21.38;;;20.90;99.90;;;21.33;83.67;101164.09;5114699;28;20293;-72
2021/06/29 06:08:27;;;;;;;28.33;20.90;;;20.90;99.90;;;21.33;83.60;101168.63;5096292;28;20048;-72
2021/06/29 06:10:55;;;;;;;28.15;20.90;;;21.00;99.90;;;21.35;83.38;101166.75;5096533;28;20074;-72
2021/06/29 06:13:24;;;;;;;33.50;21.60;;;21.00;99.90;;;21.32;83.57;101169.56;5114500;28;20056;-72
2021/06/29 06:15:53;;;;;;;25.95;19.45;;;20.90;99.90;;;21.33;83.32;101171.31;5114760;28;20362;-72
2021/06/29 06:18:23;;;;;;;25.27;19.02;;;20.90;99.90;;;21.26;83.64;101157.25;5096167;28;20047;-72
2021/06/29 06:20:52;;;;;;;27.42;20.23;;;20.90;99.90;;;21.18;84.18;101161.19;5096181;28;20443;-72
2021/06/29 06:23:20;;;;;;;24.85;18.98;;;20.80;99.90;;;21.24;83.94;101155.56;5114347;28;20043;-72
2021/06/29 06:25:48;;;;;;;29.77;19.73;;;20.80;99.90;;;21.24;84.07;101153.75;5114100;28;20468;-72
2021/06/29 06:28:17;;;;;;;27.90;18.83;;;20.80;99.90;;;21.26;83.67;101150.97;5095798;28;20052;-72
2021/06/29 06:30:45;;;;;;;27.08;19.23;;;20.80;99.90;;;21.22;83.61;101147.56;5114306;28;20141;-72
2021/06/29 06:33:14;;;;;;;28.00;19.10;;;20.90;99.90;;;21.15;84.32;101153.28;5114476;28;20092;-72
2021/06/29 06:36:01;;;;;;;29.85;20.05;;;20.80;99.90;;;21.02;85.31;101141.28;5114225;28;20138;-72
2021/06/29 06:38:30;;;;;;;28.40;19.93;;;20.70;99.90;;;21.05;85.47;101151.91;5095916;28;20044;-72
2021/06/29 06:40:58;;;;;;;32.13;18.85;;;20.70;99.90;;;21.10;85.76;101147.22;5114017;28;20301;-72
2021/06/29 06:43:27;;;;;;;37.47;19.73;;;20.70;99.90;;;21.07;85.80;101133.88;5095642;28;20097;-72
2021/06/29 06:45:55;;;;;;;30.05;19.65;;;20.80;99.90;;;20.98;85.52;101105.53;5095662;28;20561;-72
2021/06/29 06:48:24;;;;;;;30.67;18.27;;;20.80;99.90;;;21.08;86.15;101139.19;5113833;28;20396;-73
2021/06/29 06:50:52;;;;;;;29.98;19.38;;;20.80;99.90;;;21.09;86.20;101140.06;5113809;28;20032;-72
2021/06/29 06:53:22;;;;;;;33.03;19.98;;;20.70;99.90;;;21.04;85.97;101134.88;5095561;28;20477;-72
2021/06/29 06:55:51;;;;;;;31.52;20.02;;;20.70;99.90;;;20.90;86.72;101144.47;5112895;28;20374;-72
2021/06/29 06:58:19;;;;;;;28.50;20.70;;;20.60;99.90;;;20.95;86.95;101139.75;5095487;28;20067;-72
2021/06/29 07:00:48;;;;;;;30.52;20.48;;;20.60;99.90;;;21.08;86.71;101146.41;5113471;28;20079;-72
2021/06/29 07:03:16;;;;;;;30.17;20.88;;;20.70;99.90;;;21.14;86.81;101156.88;5113851;28;20040;-72
2021/06/29 07:05:45;;;;;;;29.10;20.35;;;20.80;99.90;;;21.24;86.89;101159.13;5113232;28;20135;-72
2021/06/29 07:08:14;;;;;;;30.38;20.80;;;20.90;99.90;;;21.25;85.58;101138.47;5113355;28;20040;-72
2021/06/29 07:10:44;;;;;;;34.70;21.55;;;21.00;99.90;;;21.36;85.33;101153.22;5113601;28;20044;-72
2021/06/29 07:13:12;;;;;;;31.10;21.15;;;21.00;99.90;;;21.45;84.65;101160.88;5113711;28;20089;-72
2021/06/29 07:15:41;;;;;;;26.02;20.52;;;21.20;99.90;;;21.46;84.86;101148.28;5113540;28;20051;-72
2021/06/29 07:18:14;;;;;;;27.70;21.08;;;21.20;99.90;;;21.61;84.50;101163.75;5113600;28;20032;-72
2021/06/29 07:20:44;;;;;;;29.45;21.67;;;21.30;99.90;;;21.72;84.02;101161.44;5113286;28;20400;-72
2021/06/29 07:23:13;;;;;;;31.90;22.73;;;21.40;99.90;;;21.79;83.42;101171.00;5113431;28;20062;-72
2021/06/29 07:25:43;;;;;;;29.80;22.10;;;21.50;99.90;;;21.65;82.98;101133.06;5095034;28;20044;-72
2021/06/29 07:28:12;;;;;;;30.52;22.60;;;21.50;99.90;;;21.92;82.55;101165.94;5113394;28;20052;-72
2021/06/29 07:30:41;;;;;;;29.13;24.95;;;21.60;99.90;;;22.00;82.05;101170.03;5113509;28;20078;-72
2021/06/29 07:33:09;;;;;;;33.33;24.63;;;21.70;99.90;;;22.08;81.55;101169.69;5095143;28;20052;-72
2021/06/29 07:35:38;;;;;;;31.58;23.27;;;21.70;99.90;;;22.13;81.24;101171.22;5113093;28;20448;-72
2021/06/29 07:38:08;;;;;;;30.45;24.08;;;21.80;99.90;;;22.20;81.07;101164.56;5113314;28;20048;-72
2021/06/29 07:40:36;;;;;;;29.83;23.92;;;21.80;99.90;;;22.27;80.58;101171.44;5113325;28;20155;-72
2021/06/29 07:43:06;;;;;;;34.20;24.95;;;21.90;99.90;;;22.33;80.43;101171.16;5094936;28;20541;-72
2021/06/29 07:45:35;;;;;;;35.60;25.90;;;22.00;99.90;;;22.45;80.29;101167.00;5113245;28;20130;-72
2021/06/29 07:48:05;;;;;;;35.25;24.50;;;22.10;99.90;;;22.53;79.65;101169.31;5113258;28;20046;-72
2021/06/29 07:50:34;;;;;;;37.65;25.02;;;22.20;99.90;;;22.48;79.30;101147.06;5095018;28;20404;-72
2021/06/29 07:53:03;;;;;;;31.55;23.35;;;22.30;99.90;;;22.68;78.82;101165.88;5113191;28;20043;-72
2021/06/29 07:55:31;;;;;;;29.05;23.65;;;22.40;99.90;;;22.74;79.12;101174.56;5113069;28;20455;-72
2021/06/29 07:58:00;;;;;;;32.20;23.67;;;22.40;99.90;;;22.80;78.48;101171.53;5112861;28;20431;-72
2021/06/29 08:00:30;;;;;;;31.85;24.63;;;22.50;99.90;;;22.83;78.81;101170.50;5094891;28;20467;-71
2021/06/29 08:02:59;;;;;;;29.92;23.67;;;22.50;99.90;;;22.87;78.18;101172.13;5113046;28;20443;-72
2021/06/29 08:05:28;;;;;;;30.00;23.30;;;22.50;99.90;;;22.78;77.99;101159.97;5113048;28;20046;-72
2021/06/29 08:07:57;;;;;;;32.33;22.83;;;22.50;99.90;;;22.78;78.54;101169.88;5115867;28;20051;-72
2021/06/29 08:10:25;;;;;;;28.73;22.52;;;22.40;99.90;;;22.37;78.12;101126.94;5116786;28;20390;-72
2021/06/29 08:12:54;;;;;;;33.33;23.75;;;22.30;99.90;;;22.50;79.03;101172.13;5098677;28;20484;-73
2021/06/29 08:15:23;;;;;;;34.00;27.00;;;22.10;99.90;;;22.41;79.95;101158.16;5098918;28;20055;-72
2021/06/29 08:17:53;;;;;;;37.15;24.73;;;22.10;99.90;;;22.47;78.71;101167.78;5116894;28;20047;-72
2021/06/29 08:20:22;;;;;;;30.65;22.42;;;22.10;99.90;;;22.53;79.19;101166.63;5117469;28;20043;-72
2021/06/29 08:22:53;;;;;;;32.15;23.23;;;22.20;99.90;;;22.39;79.60;101162.78;5116499;28;20050;-72
2021/06/29 08:25:23;;;;;;;30.08;23.38;;;22.10;99.90;;;22.24;80.45;101157.25;5081549;28;20051;-72
2021/06/29 08:27:52;;;;;;;;;;;22.00;99.90;;;22.35;80.22;101158.47;5116939;28;20058;-71
2021/06/29 08:30:22;;;;;;;32.28;21.90;;;22.00;99.90;;;22.12;81.36;101156.00;5116743;28;19919;-71
2021/06/29 08:32:52;;;;;;;30.63;23.42;;;21.90;99.90;;;22.15;80.04;101139.69;5116613;28;20046;-72
2021/06/29 08:35:20;;;;;;;27.42;21.95;;;21.90;99.90;;;22.35;79.25;101162.97;5116612;28;20093;-72
2021/06/29 08:37:49;;;;;;;31.30;23.52;;;22.00;99.90;;;22.18;79.52;101161.06;5116509;28;20047;-72
2021/06/29 08:40:18;;;;;;;31.33;23.70;;;21.90;99.90;;;21.90;79.92;101157.94;5116357;28;20118;-71
2021/06/29 08:42:48;;;;;;;30.58;22.75;;;21.70;99.90;;;21.79;80.64;101159.34;5098103;28;20070;-72
2021/06/29 08:45:17;;;;;;;30.38;22.98;;;21.50;99.90;;;21.82;81.21;101153.84;5116271;28;20043;-72
2021/06/29 08:47:46;;;;;;;33.15;22.55;;;21.50;99.90;;;21.94;80.56;101156.84;5097950;28;20461;-72
2021/06/29 08:50:18;;;;;;;35.55;23.40;;;21.60;99.90;;;21.79;81.19;101154.84;5116284;28;20124;-72
2021/06/29 08:52:47;;;;;;;32.25;22.15;;;21.50;99.90;;;21.81;81.01;101160.19;5116034;28;20040;-72
2021/06/29 08:55:15;;;;;;;36.58;21.55;;;21.50;99.90;;;21.78;81.07;101166.53;5115822;28;20105;-72
2021/06/29 08:57:43;;;;;;;33.60;22.15;;;21.50;99.90;;;21.86;80.57;101161.72;5116298;28;20088;-72
2021/06/29 09:00:14;;;;;;;31.00;21.88;;;21.60;99.90;;;22.05;80.56;101162.59;5097829;28;20048;-72
2021/06/29 09:02:42;;;;;;;36.95;22.75;;;21.80;99.90;;;22.06;79.71;101167.06;5115866;28;20513;-72
2021/06/29 09:05:21;;;;;;;33.80;22.92;;;21.90;99.90;;;22.14;79.15;101174.78;5115680;28;20483;-72
2021/06/29 09:08:05;;;;;;;31.30;20.63;;;21.90;99.90;;;22.15;78.72;101171.13;5097621;28;20044;-72
2021/06/29 09:10:36;;;;;;;28.50;20.30;;;22.00;99.90;;;21.81;79.35;101157.50;5115958;28;20055;-72
2021/06/29 09:13:06;;;;;;;32.63;21.15;;;21.70;99.90;;;21.86;79.96;101161.72;5097526;28;20050;-72
2021/06/29 09:15:41;;;;;;;28.95;20.67;;;21.60;99.90;;;21.79;80.33;101162.03;5115445;28;20035;-72
2021/06/29 09:18:19;;;;;;;30.30;20.05;;;21.50;99.90;;;22.04;79.70;101160.88;5114312;28;20126;-72
2021/06/29 09:20:58;;;;;;;32.53;20.67;;;21.70;99.90;;;22.07;80.46;101170.63;5097330;28;20052;-72
2021/06/29 09:23:31;;;;;;;30.43;18.83;;;21.80;99.90;;;22.04;79.63;101160.88;5097608;28;20139;-72
2021/06/29 09:26:01;;;;;;;26.63;19.20;;;21.70;99.90;;;22.14;79.50;101166.72;5115265;28;20043;-72
2021/06/29 09:28:32;;;;;;;31.15;19.50;;;21.80;99.90;;;22.22;78.47;101165.38;5096717;28;20146;-71
2021/06/29 09:31:04;;;;;;;24.65;17.52;;;22.00;99.90;;;22.24;78.22;101165.34;5115764;28;20051;-71
2021/06/29 09:33:35;;;;;;;33.95;17.25;;;21.90;99.90;;;21.49;78.22;101062.88;5115392;28;20040;-71
2021/06/29 09:36:08;;;;;;;32.33;17.85;;;21.80;99.90;;;22.00;79.13;101161.97;5114993;28;20051;-71
2021/06/29 09:38:40;;;;;;;24.05;15.88;;;21.80;99.90;;;21.96;79.38;101176.53;5096905;28;20549;-71
2021/06/29 09:41:13;;;;;;;24.60;15.82;;;21.70;99.90;;;21.86;78.91;101145.56;5115266;28;20048;-71
2021/06/29 09:43:44;;;;;;;26.13;15.13;;;21.70;99.90;;;21.85;80.27;101164.50;5115221;28;20047;-72
2021/06/29 09:46:14;;;;;;;;;;;21.60;99.90;;;21.86;79.43;101164.41;5115529;28;20050;-72
2021/06/29 09:48:45;;;;;;;26.48;15.00;;;21.60;99.90;;;21.65;80.35;101165.38;5115129;28;19957;-72
2021/06/29 09:51:35;;;;;;;;;;;21.40;99.90;;;21.95;79.31;101163.13;5115618;28;20058;-71
2021/06/29 09:54:06;;;;;;;21.48;15.07;;;21.70;99.90;;;22.16;78.65;101168.34;5115006;28;19920;-72
2021/06/29 09:56:38;;;;;;;23.95;14.85;;;21.90;99.90;;;22.36;78.13;101180.88;5096679;28;20047;-71
2021/06/29 09:59:15;;;;;;;26.95;16.13;;;22.00;99.90;;;22.10;77.96;101174.06;5096688;28;20146;-72
2021/06/29 10:01:45;;;;;;;26.27;14.70;;;21.90;99.90;;;21.90;78.11;101168.72;5114977;28;20080;-71
2021/06/29 10:04:14;;;;;;;23.73;14.45;;;21.80;99.90;;;22.04;77.79;101168.09;5114515;28;20051;-72
2021/06/29 10:06:48;;;;;;;20.48;14.75;;;21.80;99.90;;;22.20;78.11;101169.13;5096523;28;20048;-72
2021/06/29 10:09:18;;;;;;;22.58;14.82;;;21.90;99.90;;;22.33;77.45;101187.34;5096473;28;20062;-72
2021/06/29 10:11:51;;;;;;;26.73;15.63;;;22.00;99.90;;;22.11;77.35;101158.75;5114724;28;20124;-71